sensor_id;sensor_type;location;lat;lon;timestamp;P1;durP1;ratioP1;P2;durP2;ratioP2
10554;SDS011;5326;51.522;7.388;2022-12-18T00:01:13;56.87;;;32.63;;
10554;SDS011;5326;51.522;7.388;2022-12-18T00:03:44;58.97;;;33.30;;
10554;SDS011;5326;51.522;7.388;2022-12-18T00:06:12;56.37;;;32.90;;
10554;SDS011;5326;51.522;7.388;2022-12-18T00:08:40;56.57;;;31.90;;
10554;SDS011;5326;51.522;7.388;2022-12-18T00:11:08;62.87;;;33.80;;
10554;SDS011;5326;51.522;7.388;2022-12-18T00:13:37;59.50;;;32.50;;
10554;SDS011;5326;51.522;7.388;2022-12-18T00:16:06;54.70;;;31.47;;
10554;SDS011;5326;51.522;7.388;2022-12-18T00:18:34;58.97;;;32.77;;
10554;SDS011;5326;51.522;7.388;2022-12-18T00:21:03;63.47;;;33.93;;
10554;SDS011;5326;51.522;7.388;2022-12-18T00:23:32;64.07;;;33.57;;
10554;SDS011;5326;51.522;7.388;2022-12-18T00:25:59;50.23;;;30.47;;
10554;SDS011;5326;51.522;7.388;2022-12-18T00:28:27;58.43;;;32.67;;
10554;SDS011;5326;51.522;7.388;2022-12-18T00:31:27;60.00;;;31.20;;
10554;SDS011;5326;51.522;7.388;2022-12-18T00:33:48;57.80;;;32.80;;
10554;SDS011;5326;51.522;7.388;2022-12-18T00:36:20;62.33;;;33.53;;
10554;SDS011;5326;51.522;7.388;2022-12-18T00:38:48;52.13;;;33.33;;
10554;SDS011;5326;51.522;7.388;2022-12-18T00:41:15;61.37;;;32.97;;
10554;SDS011;5326;51.522;7.388;2022-12-18T00:44:02;64.20;;;34.70;;
10554;SDS011;5326;51.522;7.388;2022-12-18T00:46:29;56.07;;;32.40;;
10554;SDS011;5326;51.522;7.388;2022-12-18T00:48:56;56.50;;;32.30;;
10554;SDS011;5326;51.522;7.388;2022-12-18T00:51:23;59.57;;;33.50;;
10554;SDS011;5326;51.522;7.388;2022-12-18T00:53:50;62.03;;;32.20;;
10554;SDS011;5326;51.522;7.388;2022-12-18T00:56:17;59.70;;;33.13;;
10554;SDS011;5326;51.522;7.388;2022-12-18T00:58:43;53.47;;;31.23;;
10554;SDS011;5326;51.522;7.388;2022-12-18T01:01:10;57.23;;;32.20;;
10554;SDS011;5326;51.522;7.388;2022-12-18T01:03:37;58.30;;;32.47;;
10554;SDS011;5326;51.522;7.388;2022-12-18T01:06:09;59.90;;;34.77;;
10554;SDS011;5326;51.522;7.388;2022-12-18T01:08:38;57.57;;;33.70;;
10554;SDS011;5326;51.522;7.388;2022-12-18T01:11:09;57.00;;;32.00;;
10554;SDS011;5326;51.522;7.388;2022-12-18T01:13:36;56.60;;;31.57;;
10554;SDS011;5326;51.522;7.388;2022-12-18T01:16:04;54.47;;;30.80;;
10554;SDS011;5326;51.522;7.388;2022-12-18T01:18:31;63.77;;;36.40;;
10554;SDS011;5326;51.522;7.388;2022-12-18T01:20:59;61.70;;;35.00;;
10554;SDS011;5326;51.522;7.388;2022-12-18T01:23:28;59.27;;;34.20;;
10554;SDS011;5326;51.522;7.388;2022-12-18T01:25:55;53.23;;;32.00;;
10554;SDS011;5326;51.522;7.388;2022-12-18T01:28:21;54.17;;;32.97;;
10554;SDS011;5326;51.522;7.388;2022-12-18T01:30:48;62.60;;;34.73;;
10554;SDS011;5326;51.522;7.388;2022-12-18T01:33:15;57.17;;;32.77;;
10554;SDS011;5326;51.522;7.388;2022-12-18T01:35:41;54.67;;;33.13;;
10554;SDS011;5326;51.522;7.388;2022-12-18T01:38:09;56.17;;;32.13;;
10554;SDS011;5326;51.522;7.388;2022-12-18T01:40:36;55.27;;;32.33;;
10554;SDS011;5326;51.522;7.388;2022-12-18T01:43:03;53.77;;;32.67;;
10554;SDS011;5326;51.522;7.388;2022-12-18T01:45:30;61.63;;;32.87;;
10554;SDS011;5326;51.522;7.388;2022-12-18T01:50:31;62.10;;;32.47;;
10554;SDS011;5326;51.522;7.388;2022-12-18T01:55:35;56.57;;;31.30;;
10554;SDS011;5326;51.522;7.388;2022-12-18T01:58:15;57.30;;;32.50;;
10554;SDS011;5326;51.522;7.388;2022-12-18T02:00:42;60.30;;;33.50;;
10554;SDS011;5326;51.522;7.388;2022-12-18T02:03:10;55.40;;;32.33;;
10554;SDS011;5326;51.522;7.388;2022-12-18T02:11:30;52.63;;;31.00;;
10554;SDS011;5326;51.522;7.388;2022-12-18T02:14:14;61.63;;;31.87;;
10554;SDS011;5326;51.522;7.388;2022-12-18T02:16:52;55.27;;;31.87;;
10554;SDS011;5326;51.522;7.388;2022-12-18T02:25:13;61.97;;;34.27;;
10554;SDS011;5326;51.522;7.388;2022-12-18T02:27:50;55.67;;;31.30;;
10554;SDS011;5326;51.522;7.388;2022-12-18T02:30:17;57.70;;;32.90;;
10554;SDS011;5326;51.522;7.388;2022-12-18T02:32:48;54.17;;;30.80;;
10554;SDS011;5326;51.522;7.388;2022-12-18T02:35:20;54.30;;;31.57;;
10554;SDS011;5326;51.522;7.388;2022-12-18T02:37:48;56.97;;;31.30;;
10554;SDS011;5326;51.522;7.388;2022-12-18T02:40:15;58.17;;;32.47;;
10554;SDS011;5326;51.522;7.388;2022-12-18T02:42:43;55.10;;;31.93;;
10554;SDS011;5326;51.522;7.388;2022-12-18T02:45:10;58.33;;;32.83;;
10554;SDS011;5326;51.522;7.388;2022-12-18T02:47:38;61.87;;;32.83;;
10554;SDS011;5326;51.522;7.388;2022-12-18T03:00:24;50.13;;;30.47;;
10554;SDS011;5326;51.522;7.388;2022-12-18T03:03:23;59.77;;;30.97;;
10554;SDS011;5326;51.522;7.388;2022-12-18T03:06:00;52.00;;;30.80;;
10554;SDS011;5326;51.522;7.388;2022-12-18T03:08:37;54.13;;;32.67;;
10554;SDS011;5326;51.522;7.388;2022-12-18T03:11:07;57.53;;;31.60;;
10554;SDS011;5326;51.522;7.388;2022-12-18T03:16:05;53.27;;;30.30;;
10554;SDS011;5326;51.522;7.388;2022-12-18T03:18:34;57.60;;;32.73;;
10554;SDS011;5326;51.522;7.388;2022-12-18T03:21:03;52.77;;;31.07;;
10554;SDS011;5326;51.522;7.388;2022-12-18T03:23:35;58.33;;;30.80;;
10554;SDS011;5326;51.522;7.388;2022-12-18T03:26:19;52.97;;;30.53;;
10554;SDS011;5326;51.522;7.388;2022-12-18T03:28:55;55.03;;;31.17;;
10554;SDS011;5326;51.522;7.388;2022-12-18T03:31:25;52.70;;;30.93;;
10554;SDS011;5326;51.522;7.388;2022-12-18T03:33:55;50.30;;;29.87;;
10554;SDS011;5326;51.522;7.388;2022-12-18T03:36:23;50.80;;;28.73;;
10554;SDS011;5326;51.522;7.388;2022-12-18T03:38:50;59.40;;;31.03;;
10554;SDS011;5326;51.522;7.388;2022-12-18T03:49:08;52.20;;;30.63;;
10554;SDS011;5326;51.522;7.388;2022-12-18T03:51:54;53.23;;;30.10;;
10554;SDS011;5326;51.522;7.388;2022-12-18T03:54:43;60.13;;;33.07;;
10554;SDS011;5326;51.522;7.388;2022-12-18T03:57:18;58.87;;;30.57;;
10554;SDS011;5326;51.522;7.388;2022-12-18T03:59:47;56.67;;;31.60;;
10554;SDS011;5326;51.522;7.388;2022-12-18T04:02:16;56.17;;;30.77;;
10554;SDS011;5326;51.522;7.388;2022-12-18T04:04:44;52.53;;;30.00;;
10554;SDS011;5326;51.522;7.388;2022-12-18T04:07:11;55.63;;;31.00;;
10554;SDS011;5326;51.522;7.388;2022-12-18T04:09:38;54.87;;;31.47;;
10554;SDS011;5326;51.522;7.388;2022-12-18T04:12:06;55.03;;;30.37;;
10554;SDS011;5326;51.522;7.388;2022-12-18T04:14:34;52.07;;;29.57;;
10554;SDS011;5326;51.522;7.388;2022-12-18T04:17:02;53.53;;;30.47;;
10554;SDS011;5326;51.522;7.388;2022-12-18T04:19:29;57.30;;;31.20;;
10554;SDS011;5326;51.522;7.388;2022-12-18T04:21:56;53.20;;;30.47;;
10554;SDS011;5326;51.522;7.388;2022-12-18T04:24:22;57.90;;;30.50;;
10554;SDS011;5326;51.522;7.388;2022-12-18T04:26:49;61.13;;;32.07;;
10554;SDS011;5326;51.522;7.388;2022-12-18T04:29:15;54.40;;;30.17;;
10554;SDS011;5326;51.522;7.388;2022-12-18T04:31:42;55.27;;;31.70;;
10554;SDS011;5326;51.522;7.388;2022-12-18T04:34:08;54.13;;;31.07;;
10554;SDS011;5326;51.522;7.388;2022-12-18T04:36:35;53.30;;;29.53;;
10554;SDS011;5326;51.522;7.388;2022-12-18T04:39:01;56.67;;;29.77;;
10554;SDS011;5326;51.522;7.388;2022-12-18T04:41:28;53.77;;;31.17;;
10554;SDS011;5326;51.522;7.388;2022-12-18T04:43:55;47.57;;;29.40;;
10554;SDS011;5326;51.522;7.388;2022-12-18T04:46:21;50.33;;;29.83;;
10554;SDS011;5326;51.522;7.388;2022-12-18T04:48:48;53.30;;;29.53;;
10554;SDS011;5326;51.522;7.388;2022-12-18T04:51:15;52.03;;;29.13;;
10554;SDS011;5326;51.522;7.388;2022-12-18T04:53:41;53.60;;;29.73;;
10554;SDS011;5326;51.522;7.388;2022-12-18T04:56:13;51.03;;;29.20;;
10554;SDS011;5326;51.522;7.388;2022-12-18T04:58:41;52.53;;;31.67;;
10554;SDS011;5326;51.522;7.388;2022-12-18T05:01:09;46.13;;;28.13;;
10554;SDS011;5326;51.522;7.388;2022-12-18T05:03:37;56.60;;;30.20;;
10554;SDS011;5326;51.522;7.388;2022-12-18T05:06:05;49.87;;;29.87;;
10554;SDS011;5326;51.522;7.388;2022-12-18T05:08:32;53.67;;;29.40;;
10554;SDS011;5326;51.522;7.388;2022-12-18T05:11:06;54.63;;;28.97;;
10554;SDS011;5326;51.522;7.388;2022-12-18T05:13:37;52.20;;;29.73;;
10554;SDS011;5326;51.522;7.388;2022-12-18T05:16:05;58.13;;;29.33;;
10554;SDS011;5326;51.522;7.388;2022-12-18T05:18:32;46.00;;;28.17;;
10554;SDS011;5326;51.522;7.388;2022-12-18T05:20:59;53.70;;;28.53;;
10554;SDS011;5326;51.522;7.388;2022-12-18T05:23:26;47.50;;;28.47;;
10554;SDS011;5326;51.522;7.388;2022-12-18T05:28:27;53.57;;;29.63;;
10554;SDS011;5326;51.522;7.388;2022-12-18T05:30:55;51.77;;;28.43;;
10554;SDS011;5326;51.522;7.388;2022-12-18T05:33:25;56.90;;;30.93;;
10554;SDS011;5326;51.522;7.388;2022-12-18T05:36:10;55.57;;;29.43;;
10554;SDS011;5326;51.522;7.388;2022-12-18T05:38:38;47.77;;;28.50;;
10554;SDS011;5326;51.522;7.388;2022-12-18T05:41:05;48.17;;;28.00;;
10554;SDS011;5326;51.522;7.388;2022-12-18T05:43:33;54.03;;;29.60;;
10554;SDS011;5326;51.522;7.388;2022-12-18T05:46:08;54.40;;;28.10;;
10554;SDS011;5326;51.522;7.388;2022-12-18T05:48:38;50.90;;;29.80;;
10554;SDS011;5326;51.522;7.388;2022-12-18T05:51:08;50.27;;;29.70;;
10554;SDS011;5326;51.522;7.388;2022-12-18T05:53:36;59.57;;;29.83;;
10554;SDS011;5326;51.522;7.388;2022-12-18T05:56:04;49.13;;;29.53;;
10554;SDS011;5326;51.522;7.388;2022-12-18T05:58:33;52.70;;;28.47;;
10554;SDS011;5326;51.522;7.388;2022-12-18T06:01:13;55.13;;;28.53;;
10554;SDS011;5326;51.522;7.388;2022-12-18T06:03:43;51.87;;;29.33;;
10554;SDS011;5326;51.522;7.388;2022-12-18T06:06:18;47.37;;;27.13;;
10554;SDS011;5326;51.522;7.388;2022-12-18T06:08:49;50.13;;;26.53;;
10554;SDS011;5326;51.522;7.388;2022-12-18T06:11:17;45.23;;;26.20;;
10554;SDS011;5326;51.522;7.388;2022-12-18T06:13:52;51.83;;;27.47;;
10554;SDS011;5326;51.522;7.388;2022-12-18T06:16:24;48.93;;;28.17;;
10554;SDS011;5326;51.522;7.388;2022-12-18T06:18:51;51.73;;;29.73;;
10554;SDS011;5326;51.522;7.388;2022-12-18T06:21:17;51.73;;;29.27;;
10554;SDS011;5326;51.522;7.388;2022-12-18T06:23:44;46.30;;;26.87;;
10554;SDS011;5326;51.522;7.388;2022-12-18T06:26:11;51.83;;;29.80;;
10554;SDS011;5326;51.522;7.388;2022-12-18T06:28:38;51.63;;;27.50;;
10554;SDS011;5326;51.522;7.388;2022-12-18T06:31:05;46.13;;;26.00;;
10554;SDS011;5326;51.522;7.388;2022-12-18T06:33:32;48.77;;;27.77;;
10554;SDS011;5326;51.522;7.388;2022-12-18T06:36:03;49.90;;;28.53;;
10554;SDS011;5326;51.522;7.388;2022-12-18T06:38:32;51.17;;;28.70;;
10554;SDS011;5326;51.522;7.388;2022-12-18T06:40:59;47.40;;;26.70;;
10554;SDS011;5326;51.522;7.388;2022-12-18T06:43:26;47.30;;;26.73;;
10554;SDS011;5326;51.522;7.388;2022-12-18T06:45:57;49.37;;;28.37;;
10554;SDS011;5326;51.522;7.388;2022-12-18T06:48:27;47.37;;;28.30;;
10554;SDS011;5326;51.522;7.388;2022-12-18T06:50:54;50.53;;;28.27;;
10554;SDS011;5326;51.522;7.388;2022-12-18T06:53:20;53.03;;;28.67;;
10554;SDS011;5326;51.522;7.388;2022-12-18T06:55:47;49.50;;;27.73;;
10554;SDS011;5326;51.522;7.388;2022-12-18T06:58:14;51.47;;;27.47;;
10554;SDS011;5326;51.522;7.388;2022-12-18T07:00:41;52.33;;;27.20;;
10554;SDS011;5326;51.522;7.388;2022-12-18T07:03:09;53.85;;;33.72;;
10554;SDS011;5326;51.522;7.388;2022-12-18T07:05:40;48.40;;;27.80;;
10554;SDS011;5326;51.522;7.388;2022-12-18T07:08:07;47.70;;;27.63;;
10554;SDS011;5326;51.522;7.388;2022-12-18T07:10:44;43.27;;;26.03;;
10554;SDS011;5326;51.522;7.388;2022-12-18T07:13:18;42.67;;;25.30;;
10554;SDS011;5326;51.522;7.388;2022-12-18T07:15:45;50.70;;;27.47;;
10554;SDS011;5326;51.522;7.388;2022-12-18T07:18:12;48.60;;;27.10;;
10554;SDS011;5326;51.522;7.388;2022-12-18T07:20:39;45.17;;;26.67;;
10554;SDS011;5326;51.522;7.388;2022-12-18T07:23:06;43.13;;;25.33;;
10554;SDS011;5326;51.522;7.388;2022-12-18T07:25:34;44.00;;;25.27;;
10554;SDS011;5326;51.522;7.388;2022-12-18T07:28:02;43.60;;;23.63;;
10554;SDS011;5326;51.522;7.388;2022-12-18T07:30:29;45.97;;;26.63;;
10554;SDS011;5326;51.522;7.388;2022-12-18T07:32:56;45.47;;;24.80;;
10554;SDS011;5326;51.522;7.388;2022-12-18T07:35:22;46.20;;;26.83;;
10554;SDS011;5326;51.522;7.388;2022-12-18T07:37:50;45.03;;;26.23;;
10554;SDS011;5326;51.522;7.388;2022-12-18T07:40:17;42.77;;;25.00;;
10554;SDS011;5326;51.522;7.388;2022-12-18T07:42:44;43.93;;;24.90;;
10554;SDS011;5326;51.522;7.388;2022-12-18T07:45:10;47.80;;;26.87;;
10554;SDS011;5326;51.522;7.388;2022-12-18T07:47:37;43.40;;;24.83;;
10554;SDS011;5326;51.522;7.388;2022-12-18T07:50:04;39.13;;;25.13;;
10554;SDS011;5326;51.522;7.388;2022-12-18T07:52:31;46.67;;;25.00;;
10554;SDS011;5326;51.522;7.388;2022-12-18T07:54:58;41.23;;;24.17;;
10554;SDS011;5326;51.522;7.388;2022-12-18T07:57:25;42.87;;;23.80;;
10554;SDS011;5326;51.522;7.388;2022-12-18T08:00:11;40.37;;;24.60;;
10554;SDS011;5326;51.522;7.388;2022-12-18T08:02:38;39.40;;;23.50;;
10554;SDS011;5326;51.522;7.388;2022-12-18T08:05:09;38.57;;;21.63;;
10554;SDS011;5326;51.522;7.388;2022-12-18T08:07:38;39.17;;;23.53;;
10554;SDS011;5326;51.522;7.388;2022-12-18T08:10:05;40.03;;;23.50;;
10554;SDS011;5326;51.522;7.388;2022-12-18T08:12:32;41.20;;;23.30;;
10554;SDS011;5326;51.522;7.388;2022-12-18T08:14:59;39.10;;;23.70;;
10554;SDS011;5326;51.522;7.388;2022-12-18T08:17:25;36.70;;;21.93;;
10554;SDS011;5326;51.522;7.388;2022-12-18T08:19:52;38.13;;;21.70;;
10554;SDS011;5326;51.522;7.388;2022-12-18T08:22:18;36.87;;;18.33;;
10554;SDS011;5326;51.522;7.388;2022-12-18T08:24:45;32.43;;;18.70;;
10554;SDS011;5326;51.522;7.388;2022-12-18T08:27:12;30.47;;;16.47;;
10554;SDS011;5326;51.522;7.388;2022-12-18T08:29:55;30.63;;;17.50;;
10554;SDS011;5326;51.522;7.388;2022-12-18T08:32:21;29.00;;;15.60;;
10554;SDS011;5326;51.522;7.388;2022-12-18T08:34:48;39.00;;;15.90;;
10554;SDS011;5326;51.522;7.388;2022-12-18T08:37:15;27.43;;;16.37;;
10554;SDS011;5326;51.522;7.388;2022-12-18T08:39:41;28.77;;;17.73;;
10554;SDS011;5326;51.522;7.388;2022-12-18T08:42:08;31.67;;;17.67;;
10554;SDS011;5326;51.522;7.388;2022-12-18T08:44:53;29.07;;;16.60;;
10554;SDS011;5326;51.522;7.388;2022-12-18T08:47:20;29.83;;;18.23;;
10554;SDS011;5326;51.522;7.388;2022-12-18T08:49:46;29.60;;;18.63;;
10554;SDS011;5326;51.522;7.388;2022-12-18T08:52:16;34.40;;;19.27;;
10554;SDS011;5326;51.522;7.388;2022-12-18T08:54:43;30.23;;;18.10;;
10554;SDS011;5326;51.522;7.388;2022-12-18T08:57:09;25.33;;;16.23;;
10554;SDS011;5326;51.522;7.388;2022-12-18T08:59:36;27.20;;;17.43;;
10554;SDS011;5326;51.522;7.388;2022-12-18T09:02:02;24.73;;;15.87;;
10554;SDS011;5326;51.522;7.388;2022-12-18T09:04:29;23.70;;;14.87;;
10554;SDS011;5326;51.522;7.388;2022-12-18T09:06:56;23.70;;;14.50;;
10554;SDS011;5326;51.522;7.388;2022-12-18T09:09:22;22.47;;;14.07;;
10554;SDS011;5326;51.522;7.388;2022-12-18T09:11:49;48.30;;;27.20;;
10554;SDS011;5326;51.522;7.388;2022-12-18T09:14:15;27.40;;;17.33;;
10554;SDS011;5326;51.522;7.388;2022-12-18T09:16:42;25.03;;;14.63;;
10554;SDS011;5326;51.522;7.388;2022-12-18T09:19:12;24.83;;;15.40;;
10554;SDS011;5326;51.522;7.388;2022-12-18T09:21:39;25.07;;;15.63;;
10554;SDS011;5326;51.522;7.388;2022-12-18T09:24:13;24.97;;;15.97;;
10554;SDS011;5326;51.522;7.388;2022-12-18T09:26:40;23.73;;;14.53;;
10554;SDS011;5326;51.522;7.388;2022-12-18T09:29:10;22.90;;;14.70;;
10554;SDS011;5326;51.522;7.388;2022-12-18T09:31:36;26.77;;;17.60;;
10554;SDS011;5326;51.522;7.388;2022-12-18T09:34:04;22.93;;;14.60;;
10554;SDS011;5326;51.522;7.388;2022-12-18T09:36:31;19.83;;;12.37;;
10554;SDS011;5326;51.522;7.388;2022-12-18T09:38:58;19.80;;;11.17;;
10554;SDS011;5326;51.522;7.388;2022-12-18T09:41:41;18.57;;;9.80;;
10554;SDS011;5326;51.522;7.388;2022-12-18T09:46:51;12.80;;;7.67;;
10554;SDS011;5326;51.522;7.388;2022-12-18T09:49:35;12.77;;;8.30;;
10554;SDS011;5326;51.522;7.388;2022-12-18T09:52:11;11.00;;;7.63;;
10554;SDS011;5326;51.522;7.388;2022-12-18T09:54:43;11.57;;;8.17;;
10554;SDS011;5326;51.522;7.388;2022-12-18T09:57:22;13.13;;;7.77;;
10554;SDS011;5326;51.522;7.388;2022-12-18T10:00:02;19.77;;;11.63;;
10554;SDS011;5326;51.522;7.388;2022-12-18T10:02:31;20.77;;;11.77;;
10554;SDS011;5326;51.522;7.388;2022-12-18T10:07:47;15.60;;;9.30;;
10554;SDS011;5326;51.522;7.388;2022-12-18T10:13:21;12.33;;;8.30;;
10554;SDS011;5326;51.522;7.388;2022-12-18T10:27:27;13.77;;;9.20;;
10554;SDS011;5326;51.522;7.388;2022-12-18T10:29:54;16.33;;;9.63;;
10554;SDS011;5326;51.522;7.388;2022-12-18T10:32:23;14.27;;;9.40;;
10554;SDS011;5326;51.522;7.388;2022-12-18T10:34:52;18.40;;;9.07;;
10554;SDS011;5326;51.522;7.388;2022-12-18T10:37:26;14.83;;;9.70;;
10554;SDS011;5326;51.522;7.388;2022-12-18T10:40:13;16.17;;;9.07;;
10554;SDS011;5326;51.522;7.388;2022-12-18T10:42:47;29.73;;;18.53;;
10554;SDS011;5326;51.522;7.388;2022-12-18T10:45:29;17.03;;;10.03;;
10554;SDS011;5326;51.522;7.388;2022-12-18T10:47:56;13.03;;;9.00;;
10554;SDS011;5326;51.522;7.388;2022-12-18T10:50:28;12.30;;;8.23;;
10554;SDS011;5326;51.522;7.388;2022-12-18T10:53:19;12.83;;;9.20;;
10554;SDS011;5326;51.522;7.388;2022-12-18T10:55:50;15.10;;;9.83;;
10554;SDS011;5326;51.522;7.388;2022-12-18T10:58:34;16.73;;;9.80;;
10554;SDS011;5326;51.522;7.388;2022-12-18T11:01:06;13.53;;;9.53;;
10554;SDS011;5326;51.522;7.388;2022-12-18T11:06:27;12.03;;;8.70;;
10554;SDS011;5326;51.522;7.388;2022-12-18T11:09:01;12.47;;;7.77;;
10554;SDS011;5326;51.522;7.388;2022-12-18T11:11:50;14.30;;;9.43;;
10554;SDS011;5326;51.522;7.388;2022-12-18T11:14:35;17.13;;;8.97;;
10554;SDS011;5326;51.522;7.388;2022-12-18T11:17:19;15.53;;;9.47;;
10554;SDS011;5326;51.522;7.388;2022-12-18T11:19:59;14.40;;;9.03;;
10554;SDS011;5326;51.522;7.388;2022-12-18T11:22:31;15.27;;;8.30;;
10554;SDS011;5326;51.522;7.388;2022-12-18T11:28:01;14.37;;;8.97;;
10554;SDS011;5326;51.522;7.388;2022-12-18T11:30:31;13.67;;;9.70;;
10554;SDS011;5326;51.522;7.388;2022-12-18T11:38:23;20.37;;;12.10;;
10554;SDS011;5326;51.522;7.388;2022-12-18T11:41:05;19.70;;;13.10;;
10554;SDS011;5326;51.522;7.388;2022-12-18T11:43:38;17.53;;;11.77;;
10554;SDS011;5326;51.522;7.388;2022-12-18T11:46:09;19.87;;;11.77;;
10554;SDS011;5326;51.522;7.388;2022-12-18T11:48:46;20.03;;;12.80;;
10554;SDS011;5326;51.522;7.388;2022-12-18T11:51:22;37.93;;;22.53;;
10554;SDS011;5326;51.522;7.388;2022-12-18T11:53:54;21.07;;;13.00;;
10554;SDS011;5326;51.522;7.388;2022-12-18T11:56:29;18.20;;;11.47;;
10554;SDS011;5326;51.522;7.388;2022-12-18T12:05:13;19.07;;;10.70;;
10554;SDS011;5326;51.522;7.388;2022-12-18T12:10:45;14.30;;;10.47;;
10554;SDS011;5326;51.522;7.388;2022-12-18T12:18:51;12.23;;;8.73;;
10554;SDS011;5326;51.522;7.388;2022-12-18T12:29:27;13.73;;;9.53;;
10554;SDS011;5326;51.522;7.388;2022-12-18T12:34:56;21.27;;;11.07;;
10554;SDS011;5326;51.522;7.388;2022-12-18T12:40:17;13.10;;;9.33;;
10554;SDS011;5326;51.522;7.388;2022-12-18T12:43:15;16.60;;;9.47;;
10554;SDS011;5326;51.522;7.388;2022-12-18T12:46:10;11.00;;;8.50;;
10554;SDS011;5326;51.522;7.388;2022-12-18T12:48:58;12.70;;;9.47;;
10554;SDS011;5326;51.522;7.388;2022-12-18T12:51:37;14.87;;;8.23;;
10554;SDS011;5326;51.522;7.388;2022-12-18T12:54:11;13.00;;;8.80;;
10554;SDS011;5326;51.522;7.388;2022-12-18T12:59:34;12.30;;;9.10;;
10554;SDS011;5326;51.522;7.388;2022-12-18T13:05:14;11.97;;;8.67;;
10554;SDS011;5326;51.522;7.388;2022-12-18T13:07:46;11.33;;;8.13;;
10554;SDS011;5326;51.522;7.388;2022-12-18T13:13:00;12.60;;;8.53;;
10554;SDS011;5326;51.522;7.388;2022-12-18T13:15:35;13.47;;;9.13;;
10554;SDS011;5326;51.522;7.388;2022-12-18T13:25:53;14.80;;;8.47;;
10554;SDS011;5326;51.522;7.388;2022-12-18T13:37:35;12.67;;;8.93;;
10554;SDS011;5326;51.522;7.388;2022-12-18T13:39:59;13.17;;;9.43;;
10554;SDS011;5326;51.522;7.388;2022-12-18T13:48:18;13.53;;;9.37;;
10554;SDS011;5326;51.522;7.388;2022-12-18T13:50:49;14.20;;;9.23;;
10554;SDS011;5326;51.522;7.388;2022-12-18T13:53:29;14.87;;;9.77;;
10554;SDS011;5326;51.522;7.388;2022-12-18T13:55:58;16.40;;;10.40;;
10554;SDS011;5326;51.522;7.388;2022-12-18T13:58:25;40.13;;;27.47;;
10554;SDS011;5326;51.522;7.388;2022-12-18T14:00:52;29.57;;;18.20;;
10554;SDS011;5326;51.522;7.388;2022-12-18T14:06:06;29.67;;;19.07;;
10554;SDS011;5326;51.522;7.388;2022-12-18T14:08:40;21.47;;;14.13;;
10554;SDS011;5326;51.522;7.388;2022-12-18T14:11:19;16.37;;;11.47;;
10554;SDS011;5326;51.522;7.388;2022-12-18T14:13:48;20.10;;;11.83;;
10554;SDS011;5326;51.522;7.388;2022-12-18T14:16:16;16.20;;;11.53;;
10554;SDS011;5326;51.522;7.388;2022-12-18T14:19:01;19.30;;;12.07;;
10554;SDS011;5326;51.522;7.388;2022-12-18T14:21:40;20.10;;;12.00;;
10554;SDS011;5326;51.522;7.388;2022-12-18T14:24:13;19.67;;;11.90;;
10554;SDS011;5326;51.522;7.388;2022-12-18T14:26:45;15.20;;;10.47;;
10554;SDS011;5326;51.522;7.388;2022-12-18T14:29:48;16.97;;;11.60;;
10554;SDS011;5326;51.522;7.388;2022-12-18T14:34:47;17.03;;;12.33;;
10554;SDS011;5326;51.522;7.388;2022-12-18T14:37:16;14.63;;;10.90;;
10554;SDS011;5326;51.522;7.388;2022-12-18T14:39:57;18.33;;;12.63;;
10554;SDS011;5326;51.522;7.388;2022-12-18T14:42:35;18.23;;;12.23;;
10554;SDS011;5326;51.522;7.388;2022-12-18T14:48:08;21.10;;;11.07;;
10554;SDS011;5326;51.522;7.388;2022-12-18T14:50:56;12.97;;;8.60;;
10554;SDS011;5326;51.522;7.388;2022-12-18T14:53:26;11.97;;;7.57;;
10554;SDS011;5326;51.522;7.388;2022-12-18T14:56:27;12.23;;;7.60;;
10554;SDS011;5326;51.522;7.388;2022-12-18T14:59:06;11.87;;;6.97;;
10554;SDS011;5326;51.522;7.388;2022-12-18T15:02:30;11.43;;;6.97;;
10554;SDS011;5326;51.522;7.388;2022-12-18T15:04:41;9.87;;;7.10;;
10554;SDS011;5326;51.522;7.388;2022-12-18T15:07:14;10.87;;;7.20;;
10554;SDS011;5326;51.522;7.388;2022-12-18T15:12:35;11.83;;;7.23;;
10554;SDS011;5326;51.522;7.388;2022-12-18T15:15:04;12.33;;;7.37;;
10554;SDS011;5326;51.522;7.388;2022-12-18T15:17:31;13.17;;;7.40;;
10554;SDS011;5326;51.522;7.388;2022-12-18T15:19:59;11.60;;;6.93;;
10554;SDS011;5326;51.522;7.388;2022-12-18T15:24:54;14.13;;;7.57;;
10554;SDS011;5326;51.522;7.388;2022-12-18T15:27:26;9.97;;;7.00;;
10554;SDS011;5326;51.522;7.388;2022-12-18T15:30:22;11.90;;;7.07;;
10554;SDS011;5326;51.522;7.388;2022-12-18T15:32:49;11.40;;;7.67;;
10554;SDS011;5326;51.522;7.388;2022-12-18T15:35:18;12.23;;;7.53;;
10554;SDS011;5326;51.522;7.388;2022-12-18T15:37:45;12.90;;;7.47;;
10554;SDS011;5326;51.522;7.388;2022-12-18T15:40:16;13.37;;;7.70;;
10554;SDS011;5326;51.522;7.388;2022-12-18T15:42:45;12.70;;;7.33;;
10554;SDS011;5326;51.522;7.388;2022-12-18T15:45:30;17.43;;;10.83;;
10554;SDS011;5326;51.522;7.388;2022-12-18T15:47:57;16.43;;;9.20;;
10554;SDS011;5326;51.522;7.388;2022-12-18T15:50:24;14.77;;;8.40;;
10554;SDS011;5326;51.522;7.388;2022-12-18T15:52:52;16.20;;;7.93;;
10554;SDS011;5326;51.522;7.388;2022-12-18T15:55:21;12.10;;;7.60;;
10554;SDS011;5326;51.522;7.388;2022-12-18T15:58:08;13.73;;;7.60;;
10554;SDS011;5326;51.522;7.388;2022-12-18T16:00:38;11.47;;;7.40;;
10554;SDS011;5326;51.522;7.388;2022-12-18T16:03:05;12.33;;;8.10;;
10554;SDS011;5326;51.522;7.388;2022-12-18T16:05:33;12.30;;;8.30;;
10554;SDS011;5326;51.522;7.388;2022-12-18T16:08:00;13.07;;;8.40;;
10554;SDS011;5326;51.522;7.388;2022-12-18T16:10:27;16.97;;;8.63;;
10554;SDS011;5326;51.522;7.388;2022-12-18T16:12:54;13.97;;;8.80;;
10554;SDS011;5326;51.522;7.388;2022-12-18T16:15:21;13.70;;;8.60;;
10554;SDS011;5326;51.522;7.388;2022-12-18T16:17:50;14.30;;;8.10;;
10554;SDS011;5326;51.522;7.388;2022-12-18T16:20:19;17.47;;;9.77;;
10554;SDS011;5326;51.522;7.388;2022-12-18T16:22:47;15.93;;;10.53;;
10554;SDS011;5326;51.522;7.388;2022-12-18T16:25:24;43.00;;;20.97;;
10554;SDS011;5326;51.522;7.388;2022-12-18T16:27:52;17.20;;;10.97;;
10554;SDS011;5326;51.522;7.388;2022-12-18T16:30:22;16.70;;;10.23;;
10554;SDS011;5326;51.522;7.388;2022-12-18T16:32:51;15.43;;;9.40;;
10554;SDS011;5326;51.522;7.388;2022-12-18T16:35:18;14.10;;;9.47;;
10554;SDS011;5326;51.522;7.388;2022-12-18T16:37:45;14.30;;;8.93;;
10554;SDS011;5326;51.522;7.388;2022-12-18T16:40:13;14.70;;;8.73;;
10554;SDS011;5326;51.522;7.388;2022-12-18T16:42:41;16.50;;;9.13;;
10554;SDS011;5326;51.522;7.388;2022-12-18T16:45:11;17.33;;;8.63;;
10554;SDS011;5326;51.522;7.388;2022-12-18T16:47:41;14.77;;;9.77;;
10554;SDS011;5326;51.522;7.388;2022-12-18T16:50:08;16.57;;;9.50;;
10554;SDS011;5326;51.522;7.388;2022-12-18T16:52:35;15.70;;;10.33;;
10554;SDS011;5326;51.522;7.388;2022-12-18T16:55:02;20.87;;;11.20;;
10554;SDS011;5326;51.522;7.388;2022-12-18T16:57:29;18.40;;;10.40;;
10554;SDS011;5326;51.522;7.388;2022-12-18T16:59:57;17.80;;;11.20;;
10554;SDS011;5326;51.522;7.388;2022-12-18T17:02:30;19.23;;;10.80;;
10554;SDS011;5326;51.522;7.388;2022-12-18T17:04:57;28.00;;;16.63;;
10554;SDS011;5326;51.522;7.388;2022-12-18T17:07:25;20.03;;;13.03;;
10554;SDS011;5326;51.522;7.388;2022-12-18T17:09:53;25.50;;;12.40;;
10554;SDS011;5326;51.522;7.388;2022-12-18T17:12:20;18.83;;;11.17;;
10554;SDS011;5326;51.522;7.388;2022-12-18T17:14:47;21.20;;;12.27;;
10554;SDS011;5326;51.522;7.388;2022-12-18T17:17:13;20.83;;;11.33;;
10554;SDS011;5326;51.522;7.388;2022-12-18T17:19:49;20.60;;;11.70;;
10554;SDS011;5326;51.522;7.388;2022-12-18T17:22:16;18.17;;;11.40;;
10554;SDS011;5326;51.522;7.388;2022-12-18T17:24:43;22.87;;;11.23;;